General Francisco Javier Mina International Airport
MMTM : now visible

Airfield :











YOU CAN JOIN US ON...

 
LOGIN :

Register | Disclaimer

   EN    FR    IT 

 









Legend :    VFR   Marginal VFR   IFR   Intensive IFR   Very Intensive IFR
Visi :
Ceiling :
>= 8 km
>= 3000ft
5 to 8 km
1000 to 3000 ft
1500m to 5 km
500 to 1000 ft
800 to 1500m
200 to 500 ft
< 800m
< 200 ft
Symbols :   Thunderstorms  Fog  Heavy snow  Heavy precipitations  Wind > 20 kt






- Airport Elevation : 80 ft
- IATA code : TAM


MMTM - General Francisco Javier Mina International

CURRENT METAR :
  • 260042Z 14008G18KT 6SM BKN015 29/26 A2967 RMK 8/500 HZY

EXPIRED METARs :
  • 252341Z 12012KT 7SM BKN015 29/26 A2965 RMK SLP039 57013 910 8/100 HZY
  • 252240Z 14007KT 8SM BKN015 29/26 A2965 RMK 8/100

TAF TAF MMTM
Valid from the 25 at 18:00 until the 26 at 18:00 UTC


251700Z 2518/2618 10010KT 5SM HZ SCT015
FM260200 13005KT 5SM HZ SCT015
TEMPO 2610/2614 2SM BR BKN010
FM261600 03010KT P6SM SCT015
MMFR FIR / North America



MET'MAP, your aeronautical weather chart ! - Copyright ORBIFLY December 2007 - Disclaimer

ORBIFLY MET'MAP TEAM :

Programming & Development : Alexandra Zaïnal
Concept & original design : Baudouin d'Aumeries
Assistance for programming : Marc-Olivier Méhu
Technical & hardware support : Manuel Goepfert

Contact : metmap@orbifly.com




SOURCES & CREDITS :

   NOAA       Earth
Advisory